Time;durP1;ratioP1;P1;durP2;ratioP2;P2;SDS_P1;SDS_P2;PMS_P1;PMS_P2;Temp;Humidity;BMP_temperature;BMP_pressure;BME280_temperature;BME280_humidity;BME280_pressure;Samples;Min_cycle;Max_cycle;Signal;HPM_P1;HPM_P2
2022/04/20 00:00:34;;;;;;;;;;;;;;;13.82;36.77;100374.72;4986929;28;6796;-75
2022/04/20 00:03:03;;;;;;;;;;;;;;;13.78;36.48;100385.72;4987923;28;6891;-75
2022/04/20 00:05:33;;;;;;;;;;;;;;;13.74;36.25;100387.31;4985599;28;7078;-75
2022/04/20 00:08:00;;;;;;;;;;;;;;;13.71;36.10;100382.94;4967634;28;8198;-75
2022/04/20 00:10:28;;;;;;;;;;;;;;;13.69;36.13;100381.13;5004856;28;7023;-75
2022/04/20 00:12:54;;;;;;;;;;;;;;;13.67;37.10;100380.22;4985302;28;6891;-75
2022/04/20 00:15:20;;;;;;;;;;;;;;;13.65;36.61;100387.88;4984788;28;7262;-75
2022/04/20 00:17:45;;;;;;;;;;;;;;;13.63;36.63;100379.22;5002852;28;7188;-75
2022/04/20 00:20:12;;;;;;;;;;;;;;;13.60;37.22;100381.66;4986939;28;7034;-73
2022/04/20 00:22:37;;;;;;;;;;;;;;;13.56;36.67;100382.38;4986068;28;6800;-74
2022/04/20 00:25:04;;;;;;;;;;;;;;;13.53;36.96;100378.00;4988225;28;6857;-74
2022/04/20 00:27:35;;;;;;;;;;;;;;;13.48;37.25;100384.72;4985895;28;6959;-74
2022/04/20 00:30:04;;;;;;;;;;;;;;;13.45;36.81;100384.56;4952801;28;7096;-74
2022/04/20 00:32:30;;;;;;;;;;;;;;;13.40;36.98;100386.94;4987287;28;7414;-74
2022/04/20 00:34:56;;;;;;;;;;;;;;;13.37;37.32;100386.84;5002691;28;6816;-74
2022/04/20 00:37:23;;;;;;;;;;;;;;;13.32;37.59;100391.81;5001695;28;6799;-74
2022/04/20 00:39:49;;;;;;;;;;;;;;;13.31;37.23;100391.75;4985265;28;7406;-74
2022/04/20 00:42:15;;;;;;;;;;;;;;;13.27;36.80;100395.06;4988293;28;6871;-74
2022/04/20 00:44:41;;;;;;;;;;;;;;;13.23;36.86;100396.63;4999007;28;7001;-74
2022/04/20 00:47:09;;;;;;;;;;;;;;;13.20;36.74;100397.38;4982358;28;6795;-74
2022/04/20 00:49:40;;;;;;;;;;;;;;;13.18;36.94;100387.84;4987041;28;6812;-74
2022/04/20 00:52:06;;;;;;;;;;;;;;;13.15;36.74;100391.22;4987138;28;7041;-74
2022/04/20 00:54:32;;;;;;;;;;;;;;;13.13;37.08;100397.97;5003721;28;6807;-74
2022/04/20 00:56:58;;;;;;;;;;;;;;;13.09;37.91;100390.97;4984848;28;6800;-74
2022/04/20 00:59:27;;;;;;;;;;;;;;;13.07;37.46;100390.03;4999804;28;6807;-74
2022/04/20 01:01:55;;;;;;;;;;;;;;;13.04;37.41;100388.22;4967460;28;7134;-74
2022/04/20 01:04:21;;;;;;;;;;;;;;;13.01;37.73;100394.94;4985024;28;6999;-74
2022/04/20 01:06:49;;;;;;;;;;;;;;;12.99;37.40;100383.72;5004555;28;7026;-74
2022/04/20 01:09:15;;;;;;;;;;;;;;;12.98;37.36;100394.84;4985009;28;7124;-74
2022/04/20 01:11:42;;;;;;;;;;;;;;;12.96;37.65;100399.06;4971126;28;6985;-74
2022/04/20 01:14:09;;;;;;;;;;;;;;;12.92;37.35;100401.50;4967735;28;9028;-74
2022/04/20 01:16:35;;;;;;;;;;;;;;;12.88;37.57;100397.06;4984940;28;6812;-74
2022/04/20 01:19:02;;;;;;;;;;;;;;;12.85;37.74;100391.81;4982381;28;6804;-74
2022/04/20 01:21:28;;;;;;;;;;;;;;;12.80;37.33;100398.44;4959506;28;6804;-74
2022/04/20 01:23:54;;;;;;;;;;;;;;;12.77;37.54;100401.78;4985219;28;6812;-74
2022/04/20 01:26:20;;;;;;;;;;;;;;;12.74;38.04;100403.34;4984606;28;6902;-74
2022/04/20 01:28:48;;;;;;;;;;;;;;;12.70;37.45;100406.63;4985499;28;7002;-74
2022/04/20 01:31:16;;;;;;;;;;;;;;;12.66;37.78;100402.19;4984921;28;6971;-74
2022/04/20 01:33:44;;;;;;;;;;;;;;;12.60;38.12;100395.09;4981811;28;7218;-74
2022/04/20 01:36:11;;;;;;;;;;;;;;;12.57;38.25;100406.16;4984677;28;6816;-74
2022/04/20 01:38:38;;;;;;;;;;;;;;;12.53;37.67;100399.13;4983609;28;6792;-74
2022/04/20 01:41:04;;;;;;;;;;;;;;;12.49;38.24;100397.25;4985172;28;7992;-74
2022/04/20 01:43:30;;;;;;;;;;;;;;;12.47;38.17;100396.31;4967160;28;7045;-74
2022/04/20 01:45:56;;;;;;;;;;;;;;;12.46;38.23;100397.13;4980814;28;6780;-74
2022/04/20 01:48:22;;;;;;;;;;;;;;;12.44;38.14;100394.50;4984739;28;6807;-74
2022/04/20 01:53:33;;;;;;;;;;;;;;;12.41;38.26;100398.63;4984145;28;7432;-74
2022/04/20 01:56:03;;;;;;;;;;;;;;;12.40;38.00;100399.44;4985589;28;9603;-74
2022/04/20 01:58:28;;;;;;;;;;;;;;;12.39;37.90;100402.84;4982708;28;6816;-74
2022/04/20 02:00:54;;;;;;;;;;;;;;;12.38;38.07;100406.22;4982441;28;6815;-74
2022/04/20 02:03:20;;;;;;;;;;;;;;;12.35;38.45;100401.84;4984367;28;6959;-74
2022/04/20 02:05:46;;;;;;;;;;;;;;;12.32;38.48;100400.00;4985568;28;6803;-74
2022/04/20 02:08:11;;;;;;;;;;;;;;;12.29;38.33;100399.91;4967585;28;7082;-74
2022/04/20 02:10:37;;;;;;;;;;;;;;;12.26;38.02;100392.03;4984632;28;6791;-74
2022/04/20 02:13:02;;;;;;;;;;;;;;;12.21;38.43;100391.00;4963275;28;7270;-74
2022/04/20 02:15:28;;;;;;;;;;;;;;;12.15;38.33;100391.63;4983735;28;6981;-74
2022/04/20 02:17:54;;;;;;;;;;;;;;;12.13;38.44;100400.06;4985032;28;6999;-74
2022/04/20 02:20:21;;;;;;;;;;;;;;;12.10;38.69;100399.94;4984717;28;6808;-74
2022/04/20 02:22:46;;;;;;;;;;;;;;;12.05;38.72;100404.88;4983454;28;6847;-74
2022/04/20 02:25:12;;;;;;;;;;;;;;;12.01;38.50;100408.09;4983634;28;7420;-74
2022/04/20 02:27:38;;;;;;;;;;;;;;;11.97;38.73;100407.09;4982934;28;8078;-75
2022/04/20 02:30:05;;;;;;;;;;;;;;;11.92;38.91;100400.88;4966022;28;6938;-75
2022/04/20 02:32:30;;;;;;;;;;;;;;;11.90;39.08;100407.66;4999678;28;7883;-75
2022/04/20 02:34:56;;;;;;;;;;;;;;;11.87;38.98;100415.22;4999233;28;6882;-75
2022/04/20 02:37:23;;;;;;;;;;;;;;;11.83;38.65;100414.22;4985086;28;7173;-75
2022/04/20 02:39:49;;;;;;;;;;;;;;;11.78;39.45;100414.03;4984994;28;6887;-75
2022/04/20 02:42:16;;;;;;;;;;;;;;;11.76;39.42;100417.34;4964660;28;6970;-75
2022/04/20 02:44:43;;;;;;;;;;;;;;;11.71;39.51;100421.38;4985481;28;7306;-75
2022/04/20 02:47:10;;;;;;;;;;;;;;;11.69;39.36;100425.56;4985022;28;6793;-75
2022/04/20 02:49:35;;;;;;;;;;;;;;;11.67;39.43;100428.06;4986114;28;7247;-75
2022/04/20 02:52:02;;;;;;;;;;;;;;;11.66;39.44;100431.44;4997020;28;6811;-75
2022/04/20 02:54:29;;;;;;;;;;;;;;;11.64;39.69;100426.25;4983891;28;6807;-75
2022/04/20 02:56:55;;;;;;;;;;;;;;;11.64;39.96;100427.94;4983193;28;6812;-75
2022/04/20 02:59:21;;;;;;;;;;;;;;;11.61;39.86;100432.94;4984208;28;6791;-75
2022/04/20 03:01:46;;;;;;;;;;;;;;;11.60;39.82;100436.31;4998600;28;6784;-75
2022/04/20 03:04:12;;;;;;;;;;;;;;;11.58;40.24;100428.53;4967051;28;7165;-75
2022/04/20 03:06:38;;;;;;;;;;;;;;;11.58;39.80;100430.22;4983933;28;6800;-75
2022/04/20 03:09:04;;;;;;;;;;;;;;;11.57;40.06;100441.31;4985284;28;7222;-75
2022/04/20 03:11:30;;;;;;;;;;;;;;;11.55;39.69;100436.13;4994442;28;6807;-75
2022/04/20 03:13:56;;;;;;;;;;;;;;;11.53;40.24;100438.63;5000880;28;6855;-75
2022/04/20 03:16:24;;;;;;;;;;;;;;;11.51;39.88;100434.22;4981211;28;7391;-75
2022/04/20 03:18:50;;;;;;;;;;;;;;;11.50;39.96;100438.47;4982460;28;7266;-75
2022/04/20 03:21:16;;;;;;;;;;;;;;;11.49;39.92;100446.09;4983351;28;6896;-75
2022/04/20 03:23:42;;;;;;;;;;;;;;;11.46;40.22;100439.13;4997952;28;7153;-75
2022/04/20 03:26:08;;;;;;;;;;;;;;;11.44;40.32;100437.31;4980036;28;7005;-75
2022/04/20 03:28:34;;;;;;;;;;;;;;;11.40;39.86;100444.00;4977168;28;6868;-75
2022/04/20 03:31:01;;;;;;;;;;;;;;;11.37;40.15;100438.72;4979491;28;6824;-75
2022/04/20 03:33:27;;;;;;;;;;;;;;;11.32;40.44;100451.34;4981074;28;7224;-75
2022/04/20 03:35:53;;;;;;;;;;;;;;;11.29;40.41;100451.22;4987010;28;6816;-76
2022/04/20 03:38:19;;;;;;;;;;;;;;;11.25;40.14;100447.63;4982189;28;6812;-77
2022/04/20 03:40:46;;;;;;;;;;;;;;;11.22;40.82;100455.19;4976842;28;6952;-77
2022/04/20 03:43:12;;;;;;;;;;;;;;;11.19;40.37;100457.59;4980558;28;6962;-76
2022/04/20 03:45:38;;;;;;;;;;;;;;;11.18;40.43;100460.97;4965432;28;7832;-76
2022/04/20 03:48:05;;;;;;;;;;;;;;;11.17;40.99;100464.34;5000315;28;6815;-77
2022/04/20 03:50:31;;;;;;;;;;;;;;;11.16;40.79;100456.59;4977539;28;6819;-78
2022/04/20 03:52:56;;;;;;;;;;;;;;;11.18;40.81;100460.09;4978916;28;7401;-77
2022/04/20 03:55:22;;;;;;;;;;;;;;;11.18;40.90;100460.09;4963128;28;8693;-75
2022/04/20 03:57:48;;;;;;;;;;;;;;;11.16;40.21;100461.72;4982414;28;7014;-76
2022/04/20 04:00:14;;;;;;;;;;;;;;;11.16;41.08;100462.59;4979413;28;6870;-75
2022/04/20 04:02:41;;;;;;;;;;;;;;;11.16;40.64;100460.03;4981418;28;6804;-75
2022/04/20 04:05:07;;;;;;;;;;;;;;;11.17;40.22;100466.91;4980998;28;7196;-75
2022/04/20 04:07:32;;;;;;;;;;;;;;;11.16;40.40;100461.72;4978968;28;7215;-75
2022/04/20 04:09:58;;;;;;;;;;;;;;;11.16;40.53;100475.41;4980530;28;6942;-74
2022/04/20 04:12:24;;;;;;;;;;;;;;;11.17;40.86;100476.31;4963789;28;7089;-75
2022/04/20 04:14:51;;;;;;;;;;;;;;;11.16;40.80;100477.13;4965397;28;6892;-75
2022/04/20 04:17:16;;;;;;;;;;;;;;;11.15;41.15;100476.22;4959153;28;7067;-75
2022/04/20 04:19:42;;;;;;;;;;;;;;;11.14;41.07;100487.31;4951762;28;6943;-75
2022/04/20 04:22:08;;;;;;;;;;;;;;;11.11;40.46;100482.91;4981486;28;7019;-75
2022/04/20 04:24:36;;;;;;;;;;;;;;;11.11;41.24;100487.16;4981843;28;6986;-75
2022/04/20 04:27:10;;;;;;;;;;;;;;;11.08;40.94;100487.91;4982561;28;6812;-75
2022/04/20 04:29:38;;;;;;;;;;;;;;;11.07;41.08;100480.13;4981927;28;6792;-75
2022/04/20 04:32:05;;;;;;;;;;;;;;;11.05;41.08;100487.72;4967331;28;6792;-75
2022/04/20 04:34:31;;;;;;;;;;;;;;;11.04;41.17;100487.66;4978129;28;6800;-75
2022/04/20 04:36:56;;;;;;;;;;;;;;;11.02;41.48;100485.03;4996340;28;6791;-75
2022/04/20 04:39:23;;;;;;;;;;;;;;;11.02;41.00;100494.44;4985565;28;7827;-75
2022/04/20 04:41:50;;;;;;;;;;;;;;;10.99;40.91;100495.16;4985503;28;6799;-75
2022/04/20 04:44:18;;;;;;;;;;;;;;;11.00;41.07;100498.56;4985949;28;7238;-75
2022/04/20 04:49:29;;;;;;;;;;;;;;;10.96;40.78;100507.81;4986158;28;7468;-75
2022/04/20 04:51:56;;;;;;;;;;;;;;;10.95;41.83;100503.47;4968601;28;7628;-74
2022/04/20 04:54:23;;;;;;;;;;;;;;;10.94;41.22;100507.75;4947749;28;7067;-74
2022/04/20 04:56:49;;;;;;;;;;;;;;;10.92;41.87;100505.91;5002651;28;6887;-75
2022/04/20 04:59:14;;;;;;;;;;;;;;;10.93;41.45;100507.66;4985575;28;6967;-75
2022/04/20 05:01:40;;;;;;;;;;;;;;;10.94;41.39;100510.31;4988408;28;6875;-75
2022/04/20 05:04:06;;;;;;;;;;;;;;;10.96;41.39;100506.13;4989053;28;6804;-75
2022/04/20 05:06:32;;;;;;;;;;;;;;;10.97;41.43;100502.75;5002009;28;7915;-75
2022/04/20 05:08:58;;;;;;;;;;;;;;;10.98;41.27;100501.94;5002977;28;7832;-75
2022/04/20 05:11:24;;;;;;;;;;;;;;;11.01;41.58;100513.16;4985883;28;6796;-75
2022/04/20 05:13:49;;;;;;;;;;;;;;;11.02;41.79;100512.38;4988607;28;7267;-75
2022/04/20 05:16:15;;;;;;;;;;;;;;;11.04;41.81;100510.75;5002669;28;6891;-75
2022/04/20 05:18:41;;;;;;;;;;;;;;;11.08;41.83;100513.53;4989077;28;6788;-75
2022/04/20 05:21:06;;;;;;;;;;;;;;;11.12;41.59;100514.56;4985474;28;6784;-75
2022/04/20 05:23:32;;;;;;;;;;;;;;;11.18;42.05;100513.97;4987605;28;6795;-75
2022/04/20 05:25:58;;;;;;;;;;;;;;;11.23;41.70;100513.38;4985314;28;6876;-75
2022/04/20 05:28:23;;;;;;;;;;;;;;;11.29;41.36;100514.47;4982277;28;9706;-75
2022/04/20 05:30:49;;;;;;;;;;;;;;;11.33;41.50;100513.81;4984913;28;6788;-75
2022/04/20 05:33:15;;;;;;;;;;;;;;;11.37;41.77;100508.91;5003127;28;7022;-75
2022/04/20 05:35:41;;;;;;;;;;;;;;;11.45;41.72;100522.09;4986611;28;6864;-75
2022/04/20 05:43:36;;;;;;;;;;;;;;;11.66;41.41;100518.72;4986548;28;7008;-75
2022/04/20 05:46:03;;;;;;;;;;;;;;;11.74;41.64;100522.53;4980518;28;7224;-76
2022/04/20 05:48:29;;;;;;;;;;;;;;;11.84;41.33;100520.38;4982694;28;7312;-76
2022/04/20 05:50:54;;;;;;;;;;;;;;;11.94;41.69;100531.16;4984441;28;6936;-76
2022/04/20 05:53:20;;;;;;;;;;;;;;;12.02;41.51;100528.94;4983905;28;6776;-75
2022/04/20 05:55:46;;;;;;;;;;;;;;;12.10;41.53;100531.84;4987448;28;6983;-76
2022/04/20 05:58:12;;;;;;;;;;;;;;;12.19;41.38;100536.50;4965415;28;6959;-76
2022/04/20 06:00:37;;;;;;;;;;;;;;;12.28;41.14;100536.91;4986949;28;6859;-76
2022/04/20 06:03:03;;;;;;;;;;;;;;;12.35;41.11;100523.50;5003408;28;6800;-76
2022/04/20 06:05:29;;;;;;;;;;;;;;;12.43;40.99;100526.41;4986971;28;7149;-76
2022/04/20 06:07:55;;;;;;;;;;;;;;;12.53;41.15;100527.66;4981866;28;6811;-76
2022/04/20 06:10:21;;;;;;;;;;;;;;;12.62;40.88;100524.63;4986802;28;6792;-76
2022/04/20 06:12:47;;;;;;;;;;;;;;;12.71;41.31;100527.56;4983322;28;7233;-76
2022/04/20 06:15:13;;;;;;;;;;;;;;;12.80;41.07;100521.91;4984357;28;6788;-76
2022/04/20 06:17:38;;;;;;;;;;;;;;;12.89;41.03;100532.56;4981364;28;6961;-75
2022/04/20 06:20:05;;;;;;;;;;;;;;;12.95;40.93;100536.22;4982969;28;6879;-75
2022/04/20 06:22:31;;;;;;;;;;;;;;;13.02;41.26;100533.06;4984284;28;6844;-76
2022/04/20 06:24:56;;;;;;;;;;;;;;;13.10;41.26;100538.53;5002508;28;7248;-75
2022/04/20 06:27:30;;;;;;;;;;;;;;;13.17;41.25;100533.69;5001271;28;6780;-75
2022/04/20 06:29:55;;;;;;;;;;;;;;;13.26;40.99;100540.00;4968239;28;7908;-75
2022/04/20 06:32:23;;;;;;;;;;;;;;;13.33;41.10;100539.44;4984247;28;6878;-74
2022/04/20 06:34:49;;;;;;;;;;;;;;;13.41;41.06;100543.16;4984883;28;7228;-76
2022/04/20 06:37:15;;;;;;;;;;;;;;;13.50;41.20;100541.78;4968885;28;7234;-75
2022/04/20 06:39:41;;;;;;;;;;;;;;;13.60;40.73;100543.91;4969469;28;6784;-75
2022/04/20 06:42:07;;;;;;;;;;;;;;;13.70;41.31;100542.56;4984150;28;6836;-75
2022/04/20 06:44:33;;;;;;;;;;;;;;;13.77;41.11;100533.38;4979096;28;7007;-75
2022/04/20 06:46:59;;;;;;;;;;;;;;;13.83;40.81;100534.47;4984936;28;6956;-75
2022/04/20 06:49:25;;;;;;;;;;;;;;;13.89;40.51;100536.38;4984813;28;6816;-75
2022/04/20 07:00:05;;;;;;;;;;;;;;;14.19;40.31;100532.28;4984783;28;7971;-75
2022/04/20 07:02:32;;;;;;;;;;;;;;;14.26;40.19;100536.84;4969595;28;6987;-75
2022/04/20 07:04:57;;;;;;;;;;;;;;;14.33;39.70;100530.19;4983923;28;7059;-75
2022/04/20 07:07:23;;;;;;;;;;;;;;;14.40;40.25;100532.16;4970554;28;6931;-75
2022/04/20 07:09:49;;;;;;;;;;;;;;;14.47;40.15;100533.25;4983295;28;6816;-75
2022/04/20 07:12:14;;;;;;;;;;;;;;;14.56;39.87;100525.81;4984922;28;7133;-75
2022/04/20 07:14:40;;;;;;;;;;;;;;;14.65;39.51;100535.56;4984931;28;6795;-75
2022/04/20 07:17:07;;;;;;;;;;;;;;;14.76;39.84;100534.25;4983977;28;7422;-75
2022/04/20 07:19:34;;;;;;;;;;;;;;;14.86;39.03;100532.84;4984856;28;6885;-75
2022/04/20 07:22:01;;;;;;;;;;;;;;;14.96;39.32;100531.44;4984067;28;6812;-75
2022/04/20 07:24:26;;;;;;;;;;;;;;;15.05;38.20;100536.88;4983943;28;6800;-75
2022/04/20 07:26:52;;;;;;;;;;;;;;;15.13;39.22;100532.84;4958004;28;8440;-75
2022/04/20 07:29:18;;;;;;;;;;;;;;;15.25;38.15;100540.09;4984578;28;6807;-75
2022/04/20 07:31:44;;;;;;;;;;;;;;;15.34;38.30;100542.09;4984666;28;6924;-76
2022/04/20 07:34:10;;;;;;;;;;;;;;;15.45;38.64;100541.53;4984808;28;6807;-76
2022/04/20 07:36:35;;;;;;;;;;;;;;;15.54;37.59;100541.81;4987025;28;6779;-76
2022/04/20 07:39:01;;;;;;;;;;;;;;;15.62;37.13;100537.75;4985613;28;6807;-76
2022/04/20 07:41:27;;;;;;;;;;;;;;;15.71;37.26;100538.84;4966187;28;6784;-76
2022/04/20 07:43:52;;;;;;;;;;;;;;;15.79;36.31;100537.38;4981547;28;6803;-75
2022/04/20 07:46:20;;;;;;;;;;;;;;;15.88;36.63;100545.41;4986099;28;7076;-75
2022/04/20 07:48:46;;;;;;;;;;;;;;;16.00;36.61;100541.44;5000643;28;6969;-75
2022/04/20 07:51:13;;;;;;;;;;;;;;;16.07;36.34;100543.38;4984946;28;7073;-75
2022/04/20 07:53:39;;;;;;;;;;;;;;;16.18;36.04;100552.28;4983940;28;6820;-75
2022/04/20 07:56:06;;;;;;;;;;;;;;;16.26;35.70;100554.22;4999626;28;6930;-75
2022/04/20 07:58:31;;;;;;;;;;;;;;;16.34;35.39;100552.72;4984252;28;7343;-76
2022/04/20 08:00:57;;;;;;;;;;;;;;;16.42;35.36;100551.22;5000371;28;6812;-76
2022/04/20 08:03:24;;;;;;;;;;;;;;;16.54;35.31;100553.22;4968885;28;6859;-76
2022/04/20 08:05:56;;;;;;;;;;;;;;;16.66;34.98;100550.06;4969724;28;7015;-76
2022/04/20 08:08:24;;;;;;;;;;;;;;;16.75;34.54;100555.50;4999807;28;6808;-76
2022/04/20 08:10:50;;;;;;;;;;;;;;;16.82;34.48;100558.25;4984261;28;6883;-76
2022/04/20 08:16:00;;;;;;;;;;;;;;;16.97;34.27;100550.84;4985296;28;6912;-76
2022/04/20 08:18:27;;;;;;;;;;;;;;;17.05;33.46;100559.69;5003298;28;6804;-76
2022/04/20 08:20:53;;;;;;;;;;;;;;;17.11;33.79;100555.53;4988181;28;6804;-76
2022/04/20 08:23:20;;;;;;;;;;;;;;;17.18;33.62;100560.88;5002124;28;7197;-76
2022/04/20 08:25:46;;;;;;;;;;;;;;;17.26;33.37;100563.63;4986824;28;8018;-76
2022/04/20 08:28:13;;;;;;;;;;;;;;;17.33;33.14;100555.16;4972911;28;7673;-76
2022/04/20 08:30:39;;;;;;;;;;;;;;;17.41;32.65;100554.47;4983816;28;7034;-76
2022/04/20 08:33:07;;;;;;;;;;;;;;;17.43;32.91;100553.66;4989247;28;7020;-76
2022/04/20 08:35:38;;;;;;;;;;;;;;;17.43;32.57;100553.66;5003146;28;6979;-76
2022/04/20 08:38:07;;;;;;;;;;;;;;;17.44;32.45;100554.53;4979542;28;6799;-76
2022/04/20 08:40:33;;;;;;;;;;;;;;;17.51;32.10;100558.13;4987010;28;6892;-76
2022/04/20 08:43:07;;;;;;;;;;;;;;;17.60;32.48;100558.31;5001950;28;6874;-76
2022/04/20 08:45:37;;;;;;;;;;;;;;;17.69;32.30;100550.75;5000622;28;6887;-76
2022/04/20 08:48:04;;;;;;;;;;;;;;;17.80;31.74;100547.50;4987893;28;6887;-76
2022/04/20 08:50:30;;;;;;;;;;;;;;;17.91;32.09;100548.59;4987772;28;6975;-76
2022/04/20 08:52:57;;;;;;;;;;;;;;;18.03;31.68;100545.38;4996352;28;7261;-75
2022/04/20 08:55:22;;;;;;;;;;;;;;;18.14;31.84;100551.66;4981422;28;6804;-74
2022/04/20 08:57:52;;;;;;;;;;;;;;;18.24;31.86;100542.34;4988725;28;6898;-74
2022/04/20 09:00:22;;;;;;;;;;;;;;;18.32;31.22;100534.72;4985997;28;6884;-74
2022/04/20 09:03:00;;;;;;;;;;;;;;;18.37;31.41;100530.50;4956946;28;7063;-74
2022/04/20 09:05:29;;;;;;;;;;;;;;;18.44;31.22;100537.50;4988166;28;7168;-74
2022/04/20 09:07:56;;;;;;;;;;;;;;;18.56;31.26;100536.00;4986339;28;6835;-74
2022/04/20 09:10:22;;;;;;;;;;;;;;;18.70;31.06;100539.69;4985149;28;7012;-75
2022/04/20 09:13:10;;;;;;;;;;;;;;;18.86;31.20;100534.78;4987196;28;6788;-75
2022/04/20 09:15:38;;;;;;;;;;;;;;;19.03;30.54;100539.41;4962124;28;8416;-75
2022/04/20 09:18:06;;;;;;;;;;;;;;;19.23;30.72;100544.88;4985452;28;6819;-75
2022/04/20 09:20:34;;;;;;;;;;;;;;;19.50;30.28;100531.38;4986997;28;6804;-76
2022/04/20 09:23:09;;;;;;;;;;;;;;;19.88;29.43;100535.31;4968440;28;6808;-76
2022/04/20 09:25:37;;;;;;;;;;;;;;;20.37;28.89;100532.38;4969099;28;7015;-76
2022/04/20 09:28:08;;;;;;;;;;;;;;;21.11;28.85;100531.28;4986794;28;6819;-76
2022/04/20 09:30:40;;;;;;;;;;;;;;;22.01;28.00;100523.88;4986709;28;7051;-76
2022/04/20 09:33:09;;;;;;;;;;;;;;;22.83;26.52;100512.69;4987644;28;6808;-76
2022/04/20 09:35:48;;;;;;;;;;;;;;;23.52;26.77;100520.41;4985628;28;6884;-76
2022/04/20 09:38:18;;;;;;;;;;;;;;;24.18;25.93;100506.13;5000661;28;7864;-76
2022/04/20 09:40:44;;;;;;;;;;;;;;;24.72;24.98;100504.81;4985141;28;6804;-76
2022/04/20 09:43:19;;;;;;;;;;;;;;;25.26;24.39;100505.22;4986570;28;7292;-76
2022/04/20 09:48:50;;;;;;;;;;;;;;;25.89;24.16;100501.81;4983872;28;6872;-75
2022/04/20 09:48:51;;;;;;;;;;;;;;;26.56;23.78;100489.44;4986605;28;6906;-76
2022/04/20 09:51:21;;;;;;;;;;;;;;;27.00;23.10;100498.31;4985328;28;6997;-76
2022/04/20 09:53:49;;;;;;;;;;;;;;;27.33;22.52;100499.44;4952667;28;7243;-76
2022/04/20 09:56:22;;;;;;;;;;;;;;;27.70;22.67;100499.56;4985691;28;7176;-76
2022/04/20 09:59:01;;;;;;;;;;;;;;;28.09;21.26;100489.94;4986648;28;6799;-76
2022/04/20 10:01:36;;;;;;;;;;;;;;;28.19;20.79;100487.94;4985439;28;6800;-76
2022/04/20 10:04:06;;;;;;;;;;;;;;;28.08;20.35;100478.50;5002680;28;8164;-76
2022/04/20 10:06:33;;;;;;;;;;;;;;;28.14;20.50;100475.75;4970876;28;7096;-76
2022/04/20 10:08:59;;;;;;;;;;;;;;;28.42;20.83;100468.94;4983301;28;6983;-76
2022/04/20 10:11:27;;;;;;;;;;;;;;;28.84;20.44;100470.53;4983512;28;8324;-76
2022/04/20 10:16:50;;;;;;;;;;;;;;;28.92;19.46;100472.94;4954029;28;6808;-76
2022/04/20 10:19:26;;;;;;;;;;;;;;;28.82;19.79;100472.31;5001690;28;6867;-76
2022/04/20 10:21:54;;;;;;;;;;;;;;;28.81;19.67;100466.16;4987161;28;6812;-76
2022/04/20 10:24:30;;;;;;;;;;;;;;;28.73;19.52;100454.09;4985767;28;6808;-77
2022/04/20 10:27:06;;;;;;;;;;;;;;;28.57;19.74;100458.91;4986262;28;6983;-76
2022/04/20 10:29:40;;;;;;;;;;;;;;;28.33;19.27;100451.59;4968757;28;7237;-76
2022/04/20 10:32:22;;;;;;;;;;;;;;;28.23;19.54;100460.66;4983482;28;6800;-76
2022/04/20 10:34:50;;;;;;;;;;;;;;;28.22;19.54;100454.50;4987168;28;7157;-76
2022/04/20 10:37:31;;;;;;;;;;;;;;;28.34;19.67;100453.34;4985520;28;6857;-76
2022/04/20 10:40:17;;;;;;;;;;;;;;;28.52;19.25;100448.50;4969310;28;7243;-76
2022/04/20 10:42:48;;;;;;;;;;;;;;;28.58;19.61;100445.69;4983641;28;7344;-76
2022/04/20 10:45:16;;;;;;;;;;;;;;;28.76;19.43;100444.34;4984527;28;7396;-76
2022/04/20 10:47:43;;;;;;;;;;;;;;;28.96;19.23;100448.22;4987334;28;6976;-76
2022/04/20 10:50:20;;;;;;;;;;;;;;;29.09;19.26;100436.41;4980865;28;6882;-76
2022/04/20 10:52:53;;;;;;;;;;;;;;;29.17;18.12;100438.84;4945218;28;7002;-76
2022/04/20 10:55:44;;;;;;;;;;;;;;;29.19;18.57;100442.28;4983555;28;7141;-76
2022/04/20 10:58:20;;;;;;;;;;;;;;;29.09;18.15;100438.19;4983441;28;6812;-76
2022/04/20 11:00:46;;;;;;;;;;;;;;;29.01;18.73;100437.53;4968711;28;7027;-76
2022/04/20 11:03:12;;;;;;;;;;;;;;;29.10;18.41;100426.72;4985729;28;6808;-76
2022/04/20 11:05:55;;;;;;;;;;;;;;;29.24;18.12;100419.25;4967468;28;6784;-76
2022/04/20 11:08:22;;;;;;;;;;;;;;;29.46;18.42;100429.22;4978928;28;6788;-76
2022/04/20 11:19:54;;;;;;;;;;;;;;;30.24;17.65;100399.47;4984072;28;7042;-76
2022/04/20 11:22:23;;;;;;;;;;;;;;;30.48;17.26;100403.91;4984083;28;7161;-76
2022/04/20 11:25:06;;;;;;;;;;;;;;;30.57;17.24;100410.66;4982874;28;6808;-76
2022/04/20 11:27:36;;;;;;;;;;;;;;;30.44;16.66;100402.28;4982520;28;6819;-76
2022/04/20 11:30:04;;;;;;;;;;;;;;;30.31;17.33;100406.28;4984223;28;7263;-76
2022/04/20 11:32:31;;;;;;;;;;;;;;;30.14;17.57;100405.06;4986324;28;6816;-76
2022/04/20 11:35:11;;;;;;;;;;;;;;;30.03;16.90;100400.09;4983843;28;7170;-76
2022/04/20 11:37:39;;;;;;;;;;;;;;;30.02;17.60;100395.72;4968369;28;6804;-76
2022/04/20 11:40:12;;;;;;;;;;;;;;;30.02;16.99;100385.16;4984486;28;7056;-76
2022/04/20 11:42:40;;;;;;;;;;;;;;;29.83;17.52;100390.22;4982915;28;6807;-76
2022/04/20 11:45:06;;;;;;;;;;;;;;;29.72;17.36;100387.06;4969381;28;6955;-76
2022/04/20 11:47:39;;;;;;;;;;;;;;;29.70;17.98;100387.09;4985126;28;6811;-76
2022/04/20 11:50:08;;;;;;;;;;;;;;;29.75;17.72;100379.91;4983668;28;6963;-76
2022/04/20 11:52:33;;;;;;;;;;;;;;;29.93;17.50;100378.44;4982638;28;7153;-76
2022/04/20 11:55:05;;;;;;;;;;;;;;;30.13;17.62;100384.84;4999325;28;6875;-76
2022/04/20 11:57:31;;;;;;;;;;;;;;;29.99;17.56;100372.06;4984637;28;8165;-76
2022/04/20 11:59:59;;;;;;;;;;;;;;;29.72;17.54;100377.34;4964701;28;6792;-76
2022/04/20 12:02:25;;;;;;;;;;;;;;;29.49;17.76;100370.16;4960296;28;6804;-76
2022/04/20 12:05:07;;;;;;;;;;;;;;;29.33;17.71;100359.19;4967572;28;7272;-76
2022/04/20 12:07:35;;;;;;;;;;;;;;;29.58;18.17;100367.22;4977573;28;6831;-76
2022/04/20 12:10:03;;;;;;;;;;;;;;;30.03;17.10;100373.69;4976912;28;6847;-76
2022/04/20 12:12:30;;;;;;;;;;;;;;;30.34;17.60;100366.50;4983195;28;6800;-73
2022/04/20 12:15:07;;;;;;;;;;;;;;;30.42;16.70;100356.53;4984671;28;6800;-75
2022/04/20 12:17:33;;;;;;;;;;;;;;;30.46;17.31;100358.13;4986393;28;7052;-75
2022/04/20 12:19:59;;;;;;;;;;;;;;;30.50;17.61;100343.03;4976595;28;6855;-75
2022/04/20 12:22:24;;;;;;;;;;;;;;;30.59;17.55;100349.78;4983659;28;6919;-75
2022/04/20 12:25:11;;;;;;;;;;;;;;;30.45;16.94;100347.63;4982272;28;7141;-75
2022/04/20 12:27:56;;;;;;;;;;;;;;;30.20;17.11;100345.84;4985680;28;6869;-75
2022/04/20 12:30:47;;;;;;;;;;;;;;;30.12;17.40;100347.91;4984981;28;6971;-75
2022/04/20 12:33:23;;;;;;;;;;;;;;;30.19;17.27;100341.50;4950844;28;6866;-75
2022/04/20 12:36:00;;;;;;;;;;;;;;;30.24;17.23;100331.63;4985216;28;6811;-75
2022/04/20 12:38:27;;;;;;;;;;;;;;;30.29;16.96;100329.69;4983316;28;6812;-75
2022/04/20 12:40:53;;;;;;;;;;;;;;;30.34;16.92;100333.03;4984428;28;6808;-76
2022/04/20 12:43:20;;;;;;;;;;;;;;;30.25;18.27;100341.28;4968013;28;6896;-75
2022/04/20 12:45:46;;;;;;;;;;;;;;;30.17;17.83;100332.75;4964151;28;6985;-75
2022/04/20 12:48:11;;;;;;;;;;;;;;;30.14;17.67;100330.22;4982049;28;7254;-75
2022/04/20 12:50:41;;;;;;;;;;;;;;;30.20;17.50;100325.59;4983642;28;6878;-75
2022/04/20 12:53:07;;;;;;;;;;;;;;;30.29;17.36;100319.09;4975889;28;6884;-75
2022/04/20 13:04:14;;;;;;;;;;;;;;;30.40;17.62;100307.28;4997744;28;6820;-75
2022/04/20 13:06:40;;;;;;;;;;;;;;;30.34;17.11;100301.31;4986503;28;6852;-75
2022/04/20 13:09:06;;;;;;;;;;;;;;;30.24;17.65;100302.56;4985556;28;6791;-76
2022/04/20 13:11:32;;;;;;;;;;;;;;;30.03;17.27;100299.72;4979863;28;6787;-75
2022/04/20 13:13:58;;;;;;;;;;;;;;;29.65;17.61;100300.13;4985667;28;6799;-75
2022/04/20 13:16:24;;;;;;;;;;;;;;;29.36;18.10;100291.34;4960274;28;6800;-75
2022/04/20 13:18:51;;;;;;;;;;;;;;;29.21;17.72;100291.81;4985855;28;6783;-75
2022/04/20 13:21:16;;;;;;;;;;;;;;;29.05;17.97;100288.81;4985389;28;6991;-75
2022/04/20 13:23:42;;;;;;;;;;;;;;;28.57;18.71;100285.78;5002571;28;7895;-75
2022/04/20 13:28:54;;;;;;;;;;;;;;;27.02;19.28;100280.03;4985232;28;6900;-75
2022/04/20 13:31:20;;;;;;;;;;;;;;;26.59;19.97;100287.88;4986597;28;6883;-75
2022/04/20 13:33:46;;;;;;;;;;;;;;;26.55;19.83;100283.59;4984524;28;6804;-75
2022/04/20 13:36:13;;;;;;;;;;;;;;;26.70;19.87;100269.28;4972514;28;6780;-75